sensor_id;sensor_type;location;lat;lon;timestamp;pressure;altitude;pressure_sealevel;temperature;humidity
48644;BME280;34928;37.302;-121.984;2023-02-28T00:00:23;100710.0;;;26.00;21.37
48644;BME280;34928;37.302;-121.984;2023-02-28T00:10:29;100702.0;;;25.72;21.41
48644;BME280;34928;37.302;-121.984;2023-02-28T00:20:33;100697.0;;;25.75;21.26
48644;BME280;34928;37.302;-121.984;2023-02-28T00:30:38;100710.0;;;25.64;21.50
48644;BME280;34928;37.302;-121.984;2023-02-28T00:40:42;100723.0;;;25.64;21.33
48644;BME280;34928;37.302;-121.984;2023-02-28T00:50:49;100749.0;;;25.56;21.27
48644;BME280;34928;37.302;-121.984;2023-02-28T01:00:53;100743.0;;;25.55;21.14
48644;BME280;34928;37.302;-121.984;2023-02-28T01:10:57;100762.0;;;25.93;21.17
48644;BME280;34928;37.302;-121.984;2023-02-28T01:21:04;100755.0;;;25.32;21.10
48644;BME280;34928;37.302;-121.984;2023-02-28T01:31:07;100764.0;;;24.84;21.71
48644;BME280;34928;37.302;-121.984;2023-02-28T01:41:16;100773.0;;;25.98;21.16
48644;BME280;34928;37.302;-121.984;2023-02-28T01:51:28;100779.0;;;26.02;20.55
48644;BME280;34928;37.302;-121.984;2023-02-28T02:01:32;100772.0;;;25.94;20.81
48644;BME280;34928;37.302;-121.984;2023-02-28T02:11:39;100779.0;;;26.69;20.24
48644;BME280;34928;37.302;-121.984;2023-02-28T02:22:11;100798.0;;;26.93;19.96
48644;BME280;34928;37.302;-121.984;2023-02-28T02:42:51;100829.0;;;27.43;19.41
48644;BME280;34928;37.302;-121.984;2023-02-28T02:53:00;100820.0;;;26.96;19.66
48644;BME280;34928;37.302;-121.984;2023-02-28T03:03:09;100831.0;;;27.36;19.74
48644;BME280;34928;37.302;-121.984;2023-02-28T03:13:45;100851.0;;;26.60;20.01
48644;BME280;34928;37.302;-121.984;2023-02-28T03:23:58;100868.0;;;27.07;19.93
48644;BME280;34928;37.302;-121.984;2023-02-28T03:34:10;100868.0;;;26.84;19.92
48644;BME280;34928;37.302;-121.984;2023-02-28T03:44:21;100879.0;;;27.30;19.94
48644;BME280;34928;37.302;-121.984;2023-02-28T03:54:31;100887.0;;;27.02;19.85
48644;BME280;34928;37.302;-121.984;2023-02-28T04:04:37;100893.0;;;27.45;19.77
48644;BME280;34928;37.302;-121.984;2023-02-28T04:14:42;100882.0;;;27.14;19.70
48644;BME280;34928;37.302;-121.984;2023-02-28T04:24:47;100892.0;;;27.27;19.79
48644;BME280;34928;37.302;-121.984;2023-02-28T04:34:52;100896.0;;;27.07;19.63
48644;BME280;34928;37.302;-121.984;2023-02-28T04:44:57;100901.0;;;27.23;19.69
48644;BME280;34928;37.302;-121.984;2023-02-28T04:55:02;100907.0;;;27.19;19.48
48644;BME280;34928;37.302;-121.984;2023-02-28T05:05:08;100900.0;;;27.03;19.69
48644;BME280;34928;37.302;-121.984;2023-02-28T05:15:14;100924.0;;;27.23;19.31
48644;BME280;34928;37.302;-121.984;2023-02-28T05:25:19;100929.0;;;26.73;19.70
48644;BME280;34928;37.302;-121.984;2023-02-28T05:35:23;100934.0;;;27.16;19.25
48644;BME280;34928;37.302;-121.984;2023-02-28T05:45:27;100920.0;;;26.36;19.91
48644;BME280;34928;37.302;-121.984;2023-02-28T05:55:33;100916.0;;;26.87;19.40
48644;BME280;34928;37.302;-121.984;2023-02-28T06:05:37;100919.0;;;27.40;19.56
48644;BME280;34928;37.302;-121.984;2023-02-28T06:15:42;100933.0;;;27.44;19.49
48644;BME280;34928;37.302;-121.984;2023-02-28T06:25:48;100934.0;;;26.88;19.17
48644;BME280;34928;37.302;-121.984;2023-02-28T06:35:53;100937.0;;;27.12;19.33
48644;BME280;34928;37.302;-121.984;2023-02-28T06:45:58;100949.0;;;27.02;19.23
48644;BME280;34928;37.302;-121.984;2023-02-28T06:56:06;100951.0;;;26.77;19.81
48644;BME280;34928;37.302;-121.984;2023-02-28T07:06:12;100979.0;;;26.63;19.87
48644;BME280;34928;37.302;-121.984;2023-02-28T07:16:17;100988.0;;;26.41;20.39
48644;BME280;34928;37.302;-121.984;2023-02-28T07:26:23;100981.0;;;26.57;20.06
48644;BME280;34928;37.302;-121.984;2023-02-28T07:36:27;100986.0;;;26.38;21.15
48644;BME280;34928;37.302;-121.984;2023-02-28T07:46:34;100997.0;;;26.62;21.02
48644;BME280;34928;37.302;-121.984;2023-02-28T07:56:37;101002.0;;;25.94;21.15
48644;BME280;34928;37.302;-121.984;2023-02-28T08:06:42;100994.0;;;26.01;21.30
48644;BME280;34928;37.302;-121.984;2023-02-28T08:16:47;100996.0;;;25.91;21.55
48644;BME280;34928;37.302;-121.984;2023-02-28T08:26:52;101000.0;;;25.92;22.22
48644;BME280;34928;37.302;-121.984;2023-02-28T08:36:58;100999.0;;;25.80;21.90
48644;BME280;34928;37.302;-121.984;2023-02-28T08:47:02;100991.0;;;25.54;21.78
48644;BME280;34928;37.302;-121.984;2023-02-28T08:57:07;100980.0;;;25.37;21.62
48644;BME280;34928;37.302;-121.984;2023-02-28T09:07:12;100998.0;;;25.19;21.55
48644;BME280;34928;37.302;-121.984;2023-02-28T09:17:18;100999.0;;;25.32;20.74
48644;BME280;34928;37.302;-121.984;2023-02-28T09:27:22;101003.0;;;25.62;20.84
48644;BME280;34928;37.302;-121.984;2023-02-28T09:37:27;101015.0;;;25.83;20.88
48644;BME280;34928;37.302;-121.984;2023-02-28T09:47:34;101001.0;;;25.92;20.61
48644;BME280;34928;37.302;-121.984;2023-02-28T09:57:43;100992.0;;;25.33;20.65
48644;BME280;34928;37.302;-121.984;2023-02-28T10:08:01;100979.0;;;25.21;20.47
48644;BME280;34928;37.302;-121.984;2023-02-28T10:18:13;100971.0;;;25.12;20.60
48644;BME280;34928;37.302;-121.984;2023-02-28T10:28:23;100954.0;;;24.57;20.69
48644;BME280;34928;37.302;-121.984;2023-02-28T10:38:32;100940.0;;;25.05;20.71
48644;BME280;34928;37.302;-121.984;2023-02-28T10:48:39;100931.0;;;24.93;20.74
48644;BME280;34928;37.302;-121.984;2023-02-28T10:58:49;100925.0;;;24.78;20.68
48644;BME280;34928;37.302;-121.984;2023-02-28T11:08:54;100922.0;;;24.59;20.75
48644;BME280;34928;37.302;-121.984;2023-02-28T11:18:58;100932.0;;;24.67;20.76
48644;BME280;34928;37.302;-121.984;2023-02-28T11:29:11;100927.0;;;24.24;20.81
48644;BME280;34928;37.302;-121.984;2023-02-28T11:39:18;100911.0;;;24.26;20.88
48644;BME280;34928;37.302;-121.984;2023-02-28T11:49:31;100901.0;;;24.15;20.89
48644;BME280;34928;37.302;-121.984;2023-02-28T11:59:51;100894.0;;;23.80;20.92
48644;BME280;34928;37.302;-121.984;2023-02-28T12:10:09;100891.0;;;23.66;20.96
48644;BME280;34928;37.302;-121.984;2023-02-28T12:20:26;100884.0;;;23.70;21.01
48644;BME280;34928;37.302;-121.984;2023-02-28T12:30:35;100885.0;;;23.54;21.07
48644;BME280;34928;37.302;-121.984;2023-02-28T12:40:47;100884.0;;;23.74;21.05
48644;BME280;34928;37.302;-121.984;2023-02-28T12:50:52;100875.0;;;23.74;21.02
48644;BME280;34928;37.302;-121.984;2023-02-28T13:01:12;100858.0;;;23.38;21.63
48644;BME280;34928;37.302;-121.984;2023-02-28T13:11:28;100851.0;;;24.05;21.21
48644;BME280;34928;37.302;-121.984;2023-02-28T13:21:42;100834.0;;;23.66;20.88
48644;BME280;34928;37.302;-121.984;2023-02-28T13:52:27;100830.0;;;24.70;21.04
48644;BME280;34928;37.302;-121.984;2023-02-28T14:02:47;100825.0;;;25.06;21.00
48644;BME280;34928;37.302;-121.984;2023-02-28T14:13:01;100824.0;;;25.16;20.97
48644;BME280;34928;37.302;-121.984;2023-02-28T14:23:12;100823.0;;;25.44;20.96
48644;BME280;34928;37.302;-121.984;2023-02-28T14:33:35;100803.0;;;25.54;20.86
48644;BME280;34928;37.302;-121.984;2023-02-28T14:43:51;100770.0;;;25.81;20.72
48644;BME280;34928;37.302;-121.984;2023-02-28T14:54:00;100786.0;;;26.18;20.64
48644;BME280;34928;37.302;-121.984;2023-02-28T15:04:18;100779.0;;;26.42;20.55
48644;BME280;34928;37.302;-121.984;2023-02-28T15:14:27;100765.0;;;26.57;20.48
48644;BME280;34928;37.302;-121.984;2023-02-28T15:24:37;100759.0;;;26.67;20.45
48644;BME280;34928;37.302;-121.984;2023-02-28T15:34:44;100756.0;;;26.77;20.38
48644;BME280;34928;37.302;-121.984;2023-02-28T15:44:47;100750.0;;;26.81;20.49
48644;BME280;34928;37.302;-121.984;2023-02-28T15:54:53;100757.0;;;26.78;20.36
48644;BME280;34928;37.302;-121.984;2023-02-28T16:04:59;100767.0;;;26.94;20.31
48644;BME280;34928;37.302;-121.984;2023-02-28T16:15:07;100772.0;;;24.18;19.68
48644;BME280;34928;37.302;-121.984;2023-02-28T16:25:13;100780.0;;;25.21;20.67
48644;BME280;34928;37.302;-121.984;2023-02-28T16:35:18;100792.0;;;25.68;20.24
48644;BME280;34928;37.302;-121.984;2023-02-28T16:45:25;100787.0;;;25.66;19.98
48644;BME280;34928;37.302;-121.984;2023-02-28T16:55:33;100787.0;;;25.89;19.88
48644;BME280;34928;37.302;-121.984;2023-02-28T17:05:39;100789.0;;;26.03;19.75
48644;BME280;34928;37.302;-121.984;2023-02-28T17:15:44;100784.0;;;25.99;19.70
48644;BME280;34928;37.302;-121.984;2023-02-28T17:25:53;100779.0;;;25.93;19.66
48644;BME280;34928;37.302;-121.984;2023-02-28T17:35:57;100779.0;;;25.74;19.71
48644;BME280;34928;37.302;-121.984;2023-02-28T17:46:02;100780.0;;;25.67;19.71
48644;BME280;34928;37.302;-121.984;2023-02-28T17:56:12;100759.0;;;25.49;19.83
48644;BME280;34928;37.302;-121.984;2023-02-28T18:06:20;100751.0;;;25.81;19.92
48644;BME280;34928;37.302;-121.984;2023-02-28T18:16:27;100735.0;;;25.35;19.86
48644;BME280;34928;37.302;-121.984;2023-02-28T18:26:33;100745.0;;;25.33;19.87
48644;BME280;34928;37.302;-121.984;2023-02-28T18:36:37;100733.0;;;25.22;19.93
48644;BME280;34928;37.302;-121.984;2023-02-28T18:46:42;100732.0;;;25.03;20.09
48644;BME280;34928;37.302;-121.984;2023-02-28T18:56:47;100725.0;;;25.11;20.24
48644;BME280;34928;37.302;-121.984;2023-02-28T19:06:52;100736.0;;;24.68;20.36
48644;BME280;34928;37.302;-121.984;2023-02-28T19:16:57;100726.0;;;24.88;20.40
48644;BME280;34928;37.302;-121.984;2023-02-28T19:27:03;100713.0;;;25.02;20.28
48644;BME280;34928;37.302;-121.984;2023-02-28T19:37:08;100699.0;;;24.94;20.37
48644;BME280;34928;37.302;-121.984;2023-02-28T19:47:12;100694.0;;;24.91;20.38
48644;BME280;34928;37.302;-121.984;2023-02-28T19:57:17;100682.0;;;24.56;20.46
48644;BME280;34928;37.302;-121.984;2023-02-28T20:07:22;100667.0;;;24.37;20.61
48644;BME280;34928;37.302;-121.984;2023-02-28T20:17:28;100642.0;;;24.71;20.72
48644;BME280;34928;37.302;-121.984;2023-02-28T20:27:32;100650.0;;;24.67;20.73
48644;BME280;34928;37.302;-121.984;2023-02-28T20:37:38;100638.0;;;24.60;20.81
48644;BME280;34928;37.302;-121.984;2023-02-28T20:47:42;100624.0;;;24.74;20.68
48644;BME280;34928;37.302;-121.984;2023-02-28T20:57:47;100602.0;;;24.63;20.76
48644;BME280;34928;37.302;-121.984;2023-02-28T21:07:52;100579.0;;;24.60;20.80
48644;BME280;34928;37.302;-121.984;2023-02-28T21:17:57;100560.0;;;24.64;20.78
48644;BME280;34928;37.302;-121.984;2023-02-28T21:28:03;100533.0;;;24.67;20.78
48644;BME280;34928;37.302;-121.984;2023-02-28T21:38:07;100520.0;;;24.66;20.81
48644;BME280;34928;37.302;-121.984;2023-02-28T21:48:12;100507.0;;;24.73;20.77
48644;BME280;34928;37.302;-121.984;2023-02-28T21:58:17;100500.0;;;24.56;20.87
48644;BME280;34928;37.302;-121.984;2023-02-28T22:08:23;100497.0;;;24.44;20.98
48644;BME280;34928;37.302;-121.984;2023-02-28T22:18:27;100472.0;;;24.40;21.05
48644;BME280;34928;37.302;-121.984;2023-02-28T22:28:33;100457.0;;;24.60;21.12
48644;BME280;34928;37.302;-121.984;2023-02-28T22:38:37;100437.0;;;24.30;21.18
48644;BME280;34928;37.302;-121.984;2023-02-28T22:48:42;100414.0;;;24.37;21.11
48644;BME280;34928;37.302;-121.984;2023-02-28T22:58:49;100390.0;;;24.38;21.12
48644;BME280;34928;37.302;-121.984;2023-02-28T23:08:55;100381.0;;;24.52;21.18
48644;BME280;34928;37.302;-121.984;2023-02-28T23:18:59;100370.0;;;24.56;21.17
48644;BME280;34928;37.302;-121.984;2023-02-28T23:29:07;100349.0;;;24.65;21.16
48644;BME280;34928;37.302;-121.984;2023-02-28T23:39:14;100344.0;;;24.70;21.18
48644;BME280;34928;37.302;-121.984;2023-02-28T23:49:18;100339.0;;;24.40;21.23
48644;BME280;34928;37.302;-121.984;2023-02-28T23:59:22;100333.0;;;24.46;21.45
